Главная страница
METAR-TAF:

METAR-TAF

Аэропорты :

Kramfors, Швеция

широта: 63-03N, долгота: 017-46E, высота над уровнем моря: 10 м

Текущие метеонаблюдения

Эта сводка был подготовлена 39 минут назад, в 15:50 UTC
Ветер 3 Узел от западный
Температура -6°C
Влажность 86%
Давление 1025 hPa
Видимость 10 км и более
Рассеянная облачность на высоте 900 фута

METAR: ESNK 151550Z 27003KT 9999 BKN009 M06/M08 Q1025

Время: 17:29 (16:29 UTC)

Прогноз

Эта сводка был подготовлена 1 час и 59 минут назад, в 14:30 UTC
Прогноз действительный с 15-го 15 UTC до 15-го 19 UTC
Ветер 6 Узел от северный
Видимость 10 км и более
Нет облачности ниже 1500 м, и нет кучево-дождевой облачности
Вероятность 40%
С 15-го 15 UTC до 15-го 16 UTC
Рассеянная облачность на высоте 900 фута

TAF: ESNK 151430Z 1515/1519 35006KT CAVOK PROB40 1515/1516 BKN009

Метеонаблюдения и прогнозы для более 4000 аэропортов (сводки METAR и TAF).

Имеющиеся станции представлены на карте желтыми и красными точками.

Чтобы увидеть название станции, наведите на нее мышь.

Затем щелкните, чтобы увидеть метеонаблюдения и метеопрогнозы.

Управление картой: чтобы увеличить масштаб, щелкните зеленые кнопки с черным крестиком; чтобы уменьшить масштаб, щелкните зеленую кнопку с тире; для просмотра соседних карт щелкайте зеленые стрелки.


METAR-TAF: